sensor_id;sensor_type;location;lat;lon;timestamp;pressure;altitude;pressure_sealevel;temperature;humidity
44385;BME280;30101;32.778;34.994;2022-10-18T00:02:55;97854.69;;;21.51;70.35
44385;BME280;30101;32.778;34.994;2022-10-18T00:08:02;97847.56;;;21.55;70.22
44385;BME280;30101;32.778;34.994;2022-10-18T00:13:10;97844.34;;;21.48;70.45
44385;BME280;30101;32.778;34.994;2022-10-18T00:18:14;97849.81;;;21.43;70.48
44385;BME280;30101;32.778;34.994;2022-10-18T00:23:18;97838.13;;;21.43;70.58
44385;BME280;30101;32.778;34.994;2022-10-18T00:28:22;97827.00;;;21.44;70.58
44385;BME280;30101;32.778;34.994;2022-10-18T00:33:25;97831.31;;;21.50;70.34
44385;BME280;30101;32.778;34.994;2022-10-18T00:38:28;97822.63;;;21.48;70.46
44385;BME280;30101;32.778;34.994;2022-10-18T00:43:31;97820.47;;;21.45;70.20
44385;BME280;30101;32.778;34.994;2022-10-18T00:48:35;97831.88;;;21.42;70.48
44385;BME280;30101;32.778;34.994;2022-10-18T00:53:42;97832.97;;;21.41;70.48
44385;BME280;30101;32.778;34.994;2022-10-18T00:58:47;97828.06;;;21.43;70.33
44385;BME280;30101;32.778;34.994;2022-10-18T01:03:57;97826.19;;;21.44;70.10
44385;BME280;30101;32.778;34.994;2022-10-18T01:09:24;97823.47;;;21.44;70.20
44385;BME280;30101;32.778;34.994;2022-10-18T01:15:00;97818.28;;;21.42;70.13
44385;BME280;30101;32.778;34.994;2022-10-18T01:26:11;97824.03;;;21.41;70.25
44385;BME280;30101;32.778;34.994;2022-10-18T01:31:22;97826.72;;;21.46;70.09
44385;BME280;30101;32.778;34.994;2022-10-18T01:36:31;97834.28;;;21.49;69.99
44385;BME280;30101;32.778;34.994;2022-10-18T01:41:38;97834.66;;;21.22;70.91
44385;BME280;30101;32.778;34.994;2022-10-18T01:46:43;97823.66;;;20.57;72.33
44385;BME280;30101;32.778;34.994;2022-10-18T01:51:59;97829.06;;;20.11;73.59
44385;BME280;30101;32.778;34.994;2022-10-18T01:57:19;97830.38;;;19.88;74.26
44385;BME280;30101;32.778;34.994;2022-10-18T02:02:31;97832.78;;;19.70;74.99
44385;BME280;30101;32.778;34.994;2022-10-18T02:13:25;97827.31;;;19.59;75.70
44385;BME280;30101;32.778;34.994;2022-10-18T02:19:04;97831.09;;;19.58;75.73
44385;BME280;30101;32.778;34.994;2022-10-18T02:24:14;97821.59;;;19.56;76.24
44385;BME280;30101;32.778;34.994;2022-10-18T02:29:20;97815.63;;;19.49;76.94
44385;BME280;30101;32.778;34.994;2022-10-18T02:34:28;97805.00;;;19.32;76.96
44385;BME280;30101;32.778;34.994;2022-10-18T02:39:36;97820.69;;;19.35;77.26
44385;BME280;30101;32.778;34.994;2022-10-18T02:44:41;97817.69;;;19.26;77.45
44385;BME280;30101;32.778;34.994;2022-10-18T02:49:45;97835.28;;;19.24;78.03
44385;BME280;30101;32.778;34.994;2022-10-18T02:54:48;97838.47;;;19.16;78.09
44385;BME280;30101;32.778;34.994;2022-10-18T02:59:52;97827.09;;;19.08;78.60
44385;BME280;30101;32.778;34.994;2022-10-18T03:04:55;97827.63;;;19.05;78.72
44385;BME280;30101;32.778;34.994;2022-10-18T03:09:59;97827.84;;;19.04;79.01
44385;BME280;30101;32.778;34.994;2022-10-18T03:15:04;97835.16;;;19.03;78.89
44385;BME280;30101;32.778;34.994;2022-10-18T03:20:08;97829.22;;;19.01;79.34
44385;BME280;30101;32.778;34.994;2022-10-18T03:25:11;97834.09;;;18.99;79.24
44385;BME280;30101;32.778;34.994;2022-10-18T03:30:16;97838.69;;;18.99;79.71
44385;BME280;30101;32.778;34.994;2022-10-18T03:35:19;97847.03;;;18.97;79.55
44385;BME280;30101;32.778;34.994;2022-10-18T03:40:23;97849.50;;;18.99;79.96
44385;BME280;30101;32.778;34.994;2022-10-18T03:45:27;97854.09;;;19.03;80.15
44385;BME280;30101;32.778;34.994;2022-10-18T03:50:34;97857.63;;;19.04;79.87
44385;BME280;30101;32.778;34.994;2022-10-18T03:55:37;97854.38;;;19.02;80.46
44385;BME280;30101;32.778;34.994;2022-10-18T04:00:41;97861.13;;;18.99;80.32
44385;BME280;30101;32.778;34.994;2022-10-18T04:05:45;97861.94;;;19.00;80.76
44385;BME280;30101;32.778;34.994;2022-10-18T04:10:50;97869.81;;;19.01;80.59
44385;BME280;30101;32.778;34.994;2022-10-18T04:15:54;97881.47;;;19.07;80.69
44385;BME280;30101;32.778;34.994;2022-10-18T04:20:57;97889.88;;;19.10;80.76
44385;BME280;30101;32.778;34.994;2022-10-18T04:26:00;97889.88;;;19.10;80.80
44385;BME280;30101;32.778;34.994;2022-10-18T04:31:05;97895.84;;;19.12;80.85
44385;BME280;30101;32.778;34.994;2022-10-18T04:36:08;97903.19;;;19.17;80.78
44385;BME280;30101;32.778;34.994;2022-10-18T04:41:12;97893.47;;;19.21;80.92
44385;BME280;30101;32.778;34.994;2022-10-18T04:46:15;97895.41;;;19.31;80.90
44385;BME280;30101;32.778;34.994;2022-10-18T04:51:19;97903.84;;;19.39;80.93
44385;BME280;30101;32.778;34.994;2022-10-18T04:56:22;97904.41;;;19.47;80.88
44385;BME280;30101;32.778;34.994;2022-10-18T05:01:26;97911.78;;;19.56;80.73
44385;BME280;30101;32.778;34.994;2022-10-18T05:06:29;97920.56;;;19.74;80.80
44385;BME280;30101;32.778;34.994;2022-10-18T05:11:33;97921.72;;;19.93;80.43
44385;BME280;30101;32.778;34.994;2022-10-18T05:16:36;97927.84;;;20.51;80.25
44385;BME280;30101;32.778;34.994;2022-10-18T05:21:41;97937.59;;;20.98;79.92
44385;BME280;30101;32.778;34.994;2022-10-18T05:26:48;97942.19;;;21.18;79.54
44385;BME280;30101;32.778;34.994;2022-10-18T05:31:53;97947.63;;;21.18;79.53
44385;BME280;30101;32.778;34.994;2022-10-18T05:36:58;97949.53;;;21.17;79.58
44385;BME280;30101;32.778;34.994;2022-10-18T05:42:01;97957.41;;;21.19;79.29
44385;BME280;30101;32.778;34.994;2022-10-18T05:47:05;97952.75;;;21.24;79.14
44385;BME280;30101;32.778;34.994;2022-10-18T05:52:08;97952.25;;;21.38;78.80
44385;BME280;30101;32.778;34.994;2022-10-18T05:57:11;97948.69;;;21.52;78.44
44385;BME280;30101;32.778;34.994;2022-10-18T06:02:14;97948.56;;;21.88;77.50
44385;BME280;30101;32.778;34.994;2022-10-18T06:07:18;97952.53;;;22.06;76.91
44385;BME280;30101;32.778;34.994;2022-10-18T06:12:21;97954.63;;;22.29;76.21
44385;BME280;30101;32.778;34.994;2022-10-18T06:17:25;97954.03;;;22.38;75.79
44385;BME280;30101;32.778;34.994;2022-10-18T06:22:34;97950.75;;;22.41;75.46
44385;BME280;30101;32.778;34.994;2022-10-18T06:27:38;97942.25;;;22.52;75.00
44385;BME280;30101;32.778;34.994;2022-10-18T06:32:45;97940.66;;;22.80;74.06
44385;BME280;30101;32.778;34.994;2022-10-18T06:37:49;97944.66;;;22.93;73.82
44385;BME280;30101;32.778;34.994;2022-10-18T06:42:54;97959.50;;;23.11;73.29
44385;BME280;30101;32.778;34.994;2022-10-18T06:48:15;97957.72;;;23.25;72.25
44385;BME280;30101;32.778;34.994;2022-10-18T06:53:19;97959.03;;;23.33;71.48
44385;BME280;30101;32.778;34.994;2022-10-18T06:58:23;97952.06;;;23.22;71.31
44385;BME280;30101;32.778;34.994;2022-10-18T07:03:27;97958.47;;;23.07;71.63
44385;BME280;30101;32.778;34.994;2022-10-18T07:08:33;97959.31;;;23.02;71.15
44385;BME280;30101;32.778;34.994;2022-10-18T07:13:38;97961.56;;;22.95;71.22
44385;BME280;30101;32.778;34.994;2022-10-18T07:18:44;97959.63;;;22.96;71.33
44385;BME280;30101;32.778;34.994;2022-10-18T07:23:48;97959.63;;;22.96;71.45
44385;BME280;30101;32.778;34.994;2022-10-18T07:29:05;97960.44;;;22.96;71.40
44385;BME280;30101;32.778;34.994;2022-10-18T07:34:16;97957.09;;;23.04;71.00
44385;BME280;30101;32.778;34.994;2022-10-18T07:39:30;97957.25;;;23.18;70.61
44385;BME280;30101;32.778;34.994;2022-10-18T07:44:33;97952.13;;;23.40;70.22
44385;BME280;30101;32.778;34.994;2022-10-18T07:49:36;97950.03;;;23.56;69.32
44385;BME280;30101;32.778;34.994;2022-10-18T07:54:40;97947.28;;;23.85;68.47
44385;BME280;30101;32.778;34.994;2022-10-18T07:59:44;97943.91;;;23.93;68.21
44385;BME280;30101;32.778;34.994;2022-10-18T08:04:48;97941.50;;;23.92;67.68
44385;BME280;30101;32.778;34.994;2022-10-18T08:09:51;97934.06;;;23.98;67.40
44385;BME280;30101;32.778;34.994;2022-10-18T08:14:55;97935.97;;;23.97;67.34
44385;BME280;30101;32.778;34.994;2022-10-18T08:19:58;97928.75;;;24.06;67.04
44385;BME280;30101;32.778;34.994;2022-10-18T08:25:14;97935.00;;;24.07;66.73
44385;BME280;30101;32.778;34.994;2022-10-18T08:30:17;97930.38;;;24.07;66.32
44385;BME280;30101;32.778;34.994;2022-10-18T08:35:21;97933.94;;;24.08;65.86
44385;BME280;30101;32.778;34.994;2022-10-18T08:40:25;97924.28;;;24.15;65.43
44385;BME280;30101;32.778;34.994;2022-10-18T08:45:30;97925.81;;;24.21;65.35
44385;BME280;30101;32.778;34.994;2022-10-18T08:50:45;97923.59;;;24.23;65.02
44385;BME280;30101;32.778;34.994;2022-10-18T08:56:06;97919.94;;;24.33;65.19
44385;BME280;30101;32.778;34.994;2022-10-18T09:11:43;97923.03;;;24.64;63.57
44385;BME280;30101;32.778;34.994;2022-10-18T09:22:12;97911.00;;;24.65;63.96
44385;BME280;30101;32.778;34.994;2022-10-18T09:27:18;97904.47;;;24.80;63.02
44385;BME280;30101;32.778;34.994;2022-10-18T09:38:04;97895.81;;;24.92;62.88
44385;BME280;30101;32.778;34.994;2022-10-18T09:43:22;97888.19;;;24.89;62.81
44385;BME280;30101;32.778;34.994;2022-10-18T09:48:45;97878.59;;;24.78;62.73
44385;BME280;30101;32.778;34.994;2022-10-18T09:58:57;97880.59;;;24.72;62.13
44385;BME280;30101;32.778;34.994;2022-10-18T10:04:00;97871.28;;;24.73;61.88
44385;BME280;30101;32.778;34.994;2022-10-18T10:09:13;97872.81;;;24.79;61.88
44385;BME280;30101;32.778;34.994;2022-10-18T10:14:23;97866.53;;;24.79;62.10
44385;BME280;30101;32.778;34.994;2022-10-18T10:19:54;97864.22;;;24.72;61.65
44385;BME280;30101;32.778;34.994;2022-10-18T10:24:58;97870.78;;;24.71;61.80
44385;BME280;30101;32.778;34.994;2022-10-18T10:30:03;97860.06;;;24.74;62.21
44385;BME280;30101;32.778;34.994;2022-10-18T10:35:39;97863.38;;;24.58;62.12
44385;BME280;30101;32.778;34.994;2022-10-18T10:40:55;97861.63;;;24.62;62.54
44385;BME280;30101;32.778;34.994;2022-10-18T10:46:00;97854.88;;;24.59;62.44
44385;BME280;30101;32.778;34.994;2022-10-18T10:51:09;97844.88;;;24.68;62.71
44385;BME280;30101;32.778;34.994;2022-10-18T10:56:17;97849.78;;;24.85;62.14
44385;BME280;30101;32.778;34.994;2022-10-18T11:01:31;97850.19;;;24.92;62.21
44385;BME280;30101;32.778;34.994;2022-10-18T11:11:55;97834.50;;;24.98;62.28
44385;BME280;30101;32.778;34.994;2022-10-18T11:17:21;97839.09;;;25.02;62.24
44385;BME280;30101;32.778;34.994;2022-10-18T11:22:34;97834.72;;;25.01;61.80
44385;BME280;30101;32.778;34.994;2022-10-18T11:28:02;97837.16;;;24.89;62.28
44385;BME280;30101;32.778;34.994;2022-10-18T11:50:53;97822.25;;;24.82;61.49
44385;BME280;30101;32.778;34.994;2022-10-18T11:56:19;97827.91;;;24.85;61.31
44385;BME280;30101;32.778;34.994;2022-10-18T12:01:38;97836.00;;;24.77;61.19
44385;BME280;30101;32.778;34.994;2022-10-18T12:06:46;97815.94;;;24.67;61.26
44385;BME280;30101;32.778;34.994;2022-10-18T12:12:05;97826.44;;;24.60;61.15
44385;BME280;30101;32.778;34.994;2022-10-18T12:17:32;97827.47;;;24.64;61.64
44385;BME280;30101;32.778;34.994;2022-10-18T12:23:02;97818.97;;;24.66;61.79
44385;BME280;30101;32.778;34.994;2022-10-18T12:28:32;97815.72;;;24.64;61.67
44385;BME280;30101;32.778;34.994;2022-10-18T12:33:41;97807.53;;;24.64;61.22
44385;BME280;30101;32.778;34.994;2022-10-18T12:38:58;97808.16;;;24.61;61.11
44385;BME280;30101;32.778;34.994;2022-10-18T12:44:35;97814.50;;;24.56;61.33
44385;BME280;30101;32.778;34.994;2022-10-18T12:49:38;97811.84;;;24.51;60.95
44385;BME280;30101;32.778;34.994;2022-10-18T13:27:17;97797.06;;;24.19;60.40
44385;BME280;30101;32.778;34.994;2022-10-18T13:37:58;97794.50;;;24.09;60.11
44385;BME280;30101;32.778;34.994;2022-10-18T14:06:17;97794.44;;;23.77;60.77
44385;BME280;30101;32.778;34.994;2022-10-18T14:11:45;97792.38;;;23.68;61.01
44385;BME280;30101;32.778;34.994;2022-10-18T14:27:18;97790.13;;;23.52;61.48
44385;BME280;30101;32.778;34.994;2022-10-18T14:32:31;97787.22;;;23.43;61.51
44385;BME280;30101;32.778;34.994;2022-10-18T14:37:35;97783.31;;;23.30;61.81
44385;BME280;30101;32.778;34.994;2022-10-18T14:42:47;97785.88;;;23.22;61.96
44385;BME280;30101;32.778;34.994;2022-10-18T14:47:50;97783.84;;;23.08;62.30
44385;BME280;30101;32.778;34.994;2022-10-18T14:52:54;97792.13;;;22.98;62.56
44385;BME280;30101;32.778;34.994;2022-10-18T14:57:57;97800.69;;;22.86;62.96
44385;BME280;30101;32.778;34.994;2022-10-18T15:03:11;97800.78;;;22.76;63.10
44385;BME280;30101;32.778;34.994;2022-10-18T15:08:15;97800.88;;;22.66;63.25
44385;BME280;30101;32.778;34.994;2022-10-18T15:13:19;97800.97;;;22.56;63.51
44385;BME280;30101;32.778;34.994;2022-10-18T15:18:24;97802.41;;;22.48;63.62
44385;BME280;30101;32.778;34.994;2022-10-18T15:23:28;97802.22;;;22.40;63.79
44385;BME280;30101;32.778;34.994;2022-10-18T15:28:43;97804.16;;;22.34;64.11
44385;BME280;30101;32.778;34.994;2022-10-18T15:33:47;97803.44;;;22.23;64.24
44385;BME280;30101;32.778;34.994;2022-10-18T15:38:50;97816.53;;;22.16;64.54
44385;BME280;30101;32.778;34.994;2022-10-18T15:44:25;97819.59;;;22.10;64.70
44385;BME280;30101;32.778;34.994;2022-10-18T15:54:32;97828.88;;;21.98;65.06
44385;BME280;30101;32.778;34.994;2022-10-18T15:59:39;97840.59;;;21.94;65.35
44385;BME280;30101;32.778;34.994;2022-10-18T16:04:51;97844.97;;;21.90;65.35
44385;BME280;30101;32.778;34.994;2022-10-18T16:09:54;97837.66;;;21.85;65.32
44385;BME280;30101;32.778;34.994;2022-10-18T16:14:57;97841.75;;;21.83;65.53
44385;BME280;30101;32.778;34.994;2022-10-18T16:20:01;97842.59;;;21.78;65.63
44385;BME280;30101;32.778;34.994;2022-10-18T16:25:04;97843.69;;;21.77;65.77
44385;BME280;30101;32.778;34.994;2022-10-18T16:30:13;97850.75;;;21.73;65.91
44385;BME280;30101;32.778;34.994;2022-10-18T16:35:19;97851.59;;;21.68;65.94
44385;BME280;30101;32.778;34.994;2022-10-18T16:40:25;97844.31;;;21.64;66.14
44385;BME280;30101;32.778;34.994;2022-10-18T16:45:28;97847.28;;;21.62;66.25
44385;BME280;30101;32.778;34.994;2022-10-18T16:50:32;97847.03;;;21.59;66.22
44385;BME280;30101;32.778;34.994;2022-10-18T16:55:38;97850.03;;;21.57;66.31
44385;BME280;30101;32.778;34.994;2022-10-18T17:00:43;97846.25;;;21.53;66.55
44385;BME280;30101;32.778;34.994;2022-10-18T17:05:47;97849.25;;;21.51;66.47
44385;BME280;30101;32.778;34.994;2022-10-18T17:10:51;97843.53;;;21.48;66.62
44385;BME280;30101;32.778;34.994;2022-10-18T17:15:55;97843.00;;;21.46;66.67
44385;BME280;30101;32.778;34.994;2022-10-18T17:20:59;97844.38;;;21.43;66.70
44385;BME280;30101;32.778;34.994;2022-10-18T17:26:02;97848.47;;;21.41;66.66
44385;BME280;30101;32.778;34.994;2022-10-18T17:31:27;97845.75;;;21.36;66.84
44385;BME280;30101;32.778;34.994;2022-10-18T17:36:32;97852.03;;;21.31;67.30
44385;BME280;30101;32.778;34.994;2022-10-18T17:41:36;97850.41;;;21.30;67.04
44385;BME280;30101;32.778;34.994;2022-10-18T17:46:39;97854.75;;;21.21;67.20
44385;BME280;30101;32.778;34.994;2022-10-18T17:51:43;97859.38;;;21.20;67.26
44385;BME280;30101;32.778;34.994;2022-10-18T17:56:47;97859.91;;;21.17;67.28
44385;BME280;30101;32.778;34.994;2022-10-18T18:01:56;97872.16;;;21.15;67.32
44385;BME280;30101;32.778;34.994;2022-10-18T18:07:00;97861.81;;;21.12;68.07
44385;BME280;30101;32.778;34.994;2022-10-18T18:12:05;97863.47;;;21.08;67.52
44385;BME280;30101;32.778;34.994;2022-10-18T18:17:09;97860.22;;;21.06;67.56
44385;BME280;30101;32.778;34.994;2022-10-18T18:22:15;97866.19;;;21.02;67.58
44385;BME280;30101;32.778;34.994;2022-10-18T18:27:19;97863.22;;;20.99;67.46
44385;BME280;30101;32.778;34.994;2022-10-18T18:32:23;97859.97;;;20.97;67.66
44385;BME280;30101;32.778;34.994;2022-10-18T18:37:27;97861.34;;;20.94;67.56
44385;BME280;30101;32.778;34.994;2022-10-18T18:42:30;97851.56;;;20.93;67.66
44385;BME280;30101;32.778;34.994;2022-10-18T18:47:37;97857.53;;;20.90;67.81
44385;BME280;30101;32.778;34.994;2022-10-18T18:52:41;97858.09;;;20.87;67.68
44385;BME280;30101;32.778;34.994;2022-10-18T18:57:45;97855.38;;;20.87;67.67
44385;BME280;30101;32.778;34.994;2022-10-18T19:02:48;97858.09;;;20.87;68.05
44385;BME280;30101;32.778;34.994;2022-10-18T19:07:51;97857.53;;;20.85;68.02
44385;BME280;30101;32.778;34.994;2022-10-18T19:12:55;97854.81;;;20.85;68.16
44385;BME280;30101;32.778;34.994;2022-10-18T19:17:58;97852.09;;;20.85;68.33
44385;BME280;30101;32.778;34.994;2022-10-18T19:23:02;97851.31;;;20.85;68.45
44385;BME280;30101;32.778;34.994;2022-10-18T19:28:05;97842.34;;;20.84;68.35
44385;BME280;30101;32.778;34.994;2022-10-18T19:33:08;97836.38;;;20.82;68.53
44385;BME280;30101;32.778;34.994;2022-10-18T19:38:12;97833.13;;;20.80;68.71
44385;BME280;30101;32.778;34.994;2022-10-18T19:43:16;97833.69;;;20.77;68.84
44385;BME280;30101;32.778;34.994;2022-10-18T19:48:19;97832.34;;;20.74;68.69
44385;BME280;30101;32.778;34.994;2022-10-18T19:53:22;97836.41;;;20.72;68.91
44385;BME280;30101;32.778;34.994;2022-10-18T19:58:26;97824.72;;;20.71;68.67
44385;BME280;30101;32.778;34.994;2022-10-18T20:03:30;97822.81;;;20.72;68.94
44385;BME280;30101;32.778;34.994;2022-10-18T20:08:34;97816.88;;;20.70;69.08
44385;BME280;30101;32.778;34.994;2022-10-18T20:13:38;97817.97;;;20.69;68.94
44385;BME280;30101;32.778;34.994;2022-10-18T20:18:42;97810.34;;;20.66;69.02
44385;BME280;30101;32.778;34.994;2022-10-18T20:23:46;97803.84;;;20.67;69.13
44385;BME280;30101;32.778;34.994;2022-10-18T20:28:51;97791.94;;;20.63;69.25
44385;BME280;30101;32.778;34.994;2022-10-18T20:34:00;97798.41;;;20.67;69.15
44385;BME280;30101;32.778;34.994;2022-10-18T20:39:04;97796.78;;;20.66;69.22
44385;BME280;30101;32.778;34.994;2022-10-18T20:44:11;97796.53;;;20.62;69.02
44385;BME280;30101;32.778;34.994;2022-10-18T20:49:16;97800.06;;;20.58;69.08
44385;BME280;30101;32.778;34.994;2022-10-18T20:54:19;97801.41;;;20.55;69.26
44385;BME280;30101;32.778;34.994;2022-10-18T20:59:23;97803.59;;;20.53;69.39
44385;BME280;30101;32.778;34.994;2022-10-18T21:04:27;97800.63;;;20.50;69.37
44385;BME280;30101;32.778;34.994;2022-10-18T21:09:30;97802.78;;;20.47;69.24
44385;BME280;30101;32.778;34.994;2022-10-18T21:14:33;97797.88;;;20.44;69.27
44385;BME280;30101;32.778;34.994;2022-10-18T21:19:36;97795.69;;;20.41;69.34
44385;BME280;30101;32.778;34.994;2022-10-18T21:24:40;97791.38;;;20.40;69.49
44385;BME280;30101;32.778;34.994;2022-10-18T21:29:43;97797.34;;;20.37;69.55
44385;BME280;30101;32.778;34.994;2022-10-18T21:34:50;97794.63;;;20.37;69.52
44385;BME280;30101;32.778;34.994;2022-10-18T21:40:06;97787.03;;;20.34;69.42
44385;BME280;30101;32.778;34.994;2022-10-18T21:45:09;97786.75;;;20.36;69.70
44385;BME280;30101;32.778;34.994;2022-10-18T21:50:13;97784.06;;;20.31;69.71
44385;BME280;30101;32.778;34.994;2022-10-18T21:55:16;97781.34;;;20.31;69.70
44385;BME280;30101;32.778;34.994;2022-10-18T22:00:20;97780.53;;;20.30;70.02
44385;BME280;30101;32.778;34.994;2022-10-18T22:05:24;97777.28;;;20.28;70.11
44385;BME280;30101;32.778;34.994;2022-10-18T22:10:27;97770.50;;;20.26;70.13
44385;BME280;30101;32.778;34.994;2022-10-18T22:15:31;97765.09;;;20.26;69.99
44385;BME280;30101;32.778;34.994;2022-10-18T22:20:34;97761.81;;;20.24;69.98
44385;BME280;30101;32.778;34.994;2022-10-18T22:25:38;97759.09;;;20.24;69.98
44385;BME280;30101;32.778;34.994;2022-10-18T22:30:41;97759.66;;;20.20;70.29
44385;BME280;30101;32.778;34.994;2022-10-18T22:35:48;97756.94;;;20.20;70.52
44385;BME280;30101;32.778;34.994;2022-10-18T22:40:52;97750.19;;;20.18;70.44
44385;BME280;30101;32.778;34.994;2022-10-18T22:46:02;97750.19;;;20.18;70.41
44385;BME280;30101;32.778;34.994;2022-10-18T22:51:07;97741.50;;;20.16;70.57
44385;BME280;30101;32.778;34.994;2022-10-18T22:56:14;97741.25;;;20.12;70.52
44385;BME280;30101;32.778;34.994;2022-10-18T23:01:20;97740.94;;;20.09;70.91
44385;BME280;30101;32.778;34.994;2022-10-18T23:06:29;97727.97;;;20.06;70.82
44385;BME280;30101;32.778;34.994;2022-10-18T23:11:35;97717.66;;;20.03;71.14
44385;BME280;30101;32.778;34.994;2022-10-18T23:16:38;97709.50;;;20.03;71.11
44385;BME280;30101;32.778;34.994;2022-10-18T23:21:43;97715.75;;;20.03;70.60
44385;BME280;30101;32.778;34.994;2022-10-18T23:26:47;97714.41;;;20.01;71.06
44385;BME280;30101;32.778;34.994;2022-10-18T23:31:50;97711.41;;;19.97;71.39
44385;BME280;30101;32.778;34.994;2022-10-18T23:37:25;97706.25;;;19.96;71.34
44385;BME280;30101;32.778;34.994;2022-10-18T23:42:29;97700.31;;;19.93;71.56
44385;BME280;30101;32.778;34.994;2022-10-18T23:47:32;97697.59;;;19.93;71.64
44385;BME280;30101;32.778;34.994;2022-10-18T23:52:36;97697.59;;;19.93;71.66
44385;BME280;30101;32.778;34.994;2022-10-18T23:57:40;97693.28;;;19.92;71.87
